sensor_id;sensor_type;location;lat;lon;timestamp;P1;durP1;ratioP1;P2;durP2;ratioP2
6282;SDS011;3174;53.486;9.568;2023-11-19T00:01:25;1.23;;;1.00;;
6282;SDS011;3174;53.486;9.568;2023-11-19T00:03:53;1.83;;;1.00;;
6282;SDS011;3174;53.486;9.568;2023-11-19T00:06:22;1.30;;;1.20;;
6282;SDS011;3174;53.486;9.568;2023-11-19T00:08:50;1.63;;;1.13;;
6282;SDS011;3174;53.486;9.568;2023-11-19T00:11:19;1.43;;;1.10;;
6282;SDS011;3174;53.486;9.568;2023-11-19T00:13:47;2.07;;;1.10;;
6282;SDS011;3174;53.486;9.568;2023-11-19T00:16:15;3.23;;;1.20;;
6282;SDS011;3174;53.486;9.568;2023-11-19T00:18:44;1.20;;;1.10;;
6282;SDS011;3174;53.486;9.568;2023-11-19T00:21:12;1.30;;;1.20;;
6282;SDS011;3174;53.486;9.568;2023-11-19T00:23:40;1.27;;;1.13;;
6282;SDS011;3174;53.486;9.568;2023-11-19T00:26:08;1.30;;;1.20;;
6282;SDS011;3174;53.486;9.568;2023-11-19T00:28:37;1.37;;;1.20;;
6282;SDS011;3174;53.486;9.568;2023-11-19T00:31:05;1.40;;;1.30;;
6282;SDS011;3174;53.486;9.568;2023-11-19T00:33:34;1.63;;;1.20;;
6282;SDS011;3174;53.486;9.568;2023-11-19T00:36:15;1.67;;;1.27;;
6282;SDS011;3174;53.486;9.568;2023-11-19T00:38:43;1.20;;;1.10;;
6282;SDS011;3174;53.486;9.568;2023-11-19T00:41:11;0.97;;;0.93;;
6282;SDS011;3174;53.486;9.568;2023-11-19T00:43:42;1.20;;;1.10;;
6282;SDS011;3174;53.486;9.568;2023-11-19T00:46:10;1.13;;;1.03;;
6282;SDS011;3174;53.486;9.568;2023-11-19T00:48:40;1.37;;;1.03;;
6282;SDS011;3174;53.486;9.568;2023-11-19T00:51:08;1.60;;;1.20;;
6282;SDS011;3174;53.486;9.568;2023-11-19T00:53:37;1.37;;;1.23;;
6282;SDS011;3174;53.486;9.568;2023-11-19T00:56:05;1.23;;;1.10;;
6282;SDS011;3174;53.486;9.568;2023-11-19T00:58:33;1.80;;;1.20;;
6282;SDS011;3174;53.486;9.568;2023-11-19T01:01:04;1.30;;;1.10;;
6282;SDS011;3174;53.486;9.568;2023-11-19T01:03:33;1.70;;;1.17;;
6282;SDS011;3174;53.486;9.568;2023-11-19T01:06:01;1.10;;;1.00;;
6282;SDS011;3174;53.486;9.568;2023-11-19T01:08:29;1.07;;;1.00;;
6282;SDS011;3174;53.486;9.568;2023-11-19T01:10:57;0.80;;;0.77;;
6282;SDS011;3174;53.486;9.568;2023-11-19T01:13:26;0.83;;;0.83;;
6282;SDS011;3174;53.486;9.568;2023-11-19T01:15:54;0.87;;;0.87;;
6282;SDS011;3174;53.486;9.568;2023-11-19T01:18:24;1.40;;;1.00;;
6282;SDS011;3174;53.486;9.568;2023-11-19T01:20:52;0.90;;;0.90;;
6282;SDS011;3174;53.486;9.568;2023-11-19T01:23:20;1.30;;;1.00;;
6282;SDS011;3174;53.486;9.568;2023-11-19T01:25:48;1.13;;;1.03;;
6282;SDS011;3174;53.486;9.568;2023-11-19T01:28:16;1.10;;;1.00;;
6282;SDS011;3174;53.486;9.568;2023-11-19T01:30:45;1.30;;;1.10;;
6282;SDS011;3174;53.486;9.568;2023-11-19T01:33:13;1.10;;;1.00;;
6282;SDS011;3174;53.486;9.568;2023-11-19T01:35:42;0.97;;;0.80;;
6282;SDS011;3174;53.486;9.568;2023-11-19T01:38:10;0.90;;;0.90;;
6282;SDS011;3174;53.486;9.568;2023-11-19T01:40:38;0.90;;;0.90;;
6282;SDS011;3174;53.486;9.568;2023-11-19T01:43:06;1.10;;;1.00;;
6282;SDS011;3174;53.486;9.568;2023-11-19T01:45:37;0.80;;;0.80;;
6282;SDS011;3174;53.486;9.568;2023-11-19T01:48:07;0.90;;;0.90;;
6282;SDS011;3174;53.486;9.568;2023-11-19T01:50:38;0.80;;;0.80;;
6282;SDS011;3174;53.486;9.568;2023-11-19T01:53:07;1.07;;;1.00;;
6282;SDS011;3174;53.486;9.568;2023-11-19T01:55:35;1.13;;;1.00;;
6282;SDS011;3174;53.486;9.568;2023-11-19T01:58:03;1.17;;;1.00;;
6282;SDS011;3174;53.486;9.568;2023-11-19T02:00:31;1.07;;;1.00;;
6282;SDS011;3174;53.486;9.568;2023-11-19T02:03:01;1.03;;;0.93;;
6282;SDS011;3174;53.486;9.568;2023-11-19T02:05:30;1.57;;;1.00;;
6282;SDS011;3174;53.486;9.568;2023-11-19T02:07:59;2.17;;;1.03;;
6282;SDS011;3174;53.486;9.568;2023-11-19T02:10:28;1.13;;;1.03;;
6282;SDS011;3174;53.486;9.568;2023-11-19T02:12:58;2.30;;;0.90;;
6282;SDS011;3174;53.486;9.568;2023-11-19T02:15:29;1.30;;;1.20;;
6282;SDS011;3174;53.486;9.568;2023-11-19T02:20:48;1.10;;;1.00;;
6282;SDS011;3174;53.486;9.568;2023-11-19T02:23:17;1.77;;;1.27;;
6282;SDS011;3174;53.486;9.568;2023-11-19T02:25:51;1.27;;;1.17;;
6282;SDS011;3174;53.486;9.568;2023-11-19T02:28:26;1.37;;;1.27;;
6282;SDS011;3174;53.486;9.568;2023-11-19T02:30:54;1.60;;;1.50;;
6282;SDS011;3174;53.486;9.568;2023-11-19T02:33:22;1.57;;;1.27;;
6282;SDS011;3174;53.486;9.568;2023-11-19T02:35:51;1.77;;;1.67;;
6282;SDS011;3174;53.486;9.568;2023-11-19T02:38:19;1.77;;;1.50;;
6282;SDS011;3174;53.486;9.568;2023-11-19T02:40:48;1.57;;;1.47;;
6282;SDS011;3174;53.486;9.568;2023-11-19T02:43:16;1.97;;;1.40;;
6282;SDS011;3174;53.486;9.568;2023-11-19T02:45:46;2.03;;;1.20;;
6282;SDS011;3174;53.486;9.568;2023-11-19T02:48:14;1.53;;;1.17;;
6282;SDS011;3174;53.486;9.568;2023-11-19T02:50:42;1.47;;;1.23;;
6282;SDS011;3174;53.486;9.568;2023-11-19T02:53:10;1.43;;;1.33;;
6282;SDS011;3174;53.486;9.568;2023-11-19T02:55:39;1.63;;;1.50;;
6282;SDS011;3174;53.486;9.568;2023-11-19T02:58:07;2.13;;;1.93;;
6282;SDS011;3174;53.486;9.568;2023-11-19T03:00:47;3.57;;;1.67;;
6282;SDS011;3174;53.486;9.568;2023-11-19T03:03:21;2.00;;;1.80;;
6282;SDS011;3174;53.486;9.568;2023-11-19T03:05:52;2.17;;;1.97;;
6282;SDS011;3174;53.486;9.568;2023-11-19T03:08:21;4.10;;;2.00;;
6282;SDS011;3174;53.486;9.568;2023-11-19T03:10:49;2.50;;;2.20;;
6282;SDS011;3174;53.486;9.568;2023-11-19T03:13:17;2.37;;;2.13;;
6282;SDS011;3174;53.486;9.568;2023-11-19T03:15:45;2.77;;;2.30;;
6282;SDS011;3174;53.486;9.568;2023-11-19T03:18:15;1.80;;;1.70;;
6282;SDS011;3174;53.486;9.568;2023-11-19T03:20:43;2.60;;;1.93;;
6282;SDS011;3174;53.486;9.568;2023-11-19T03:23:11;2.50;;;1.83;;
6282;SDS011;3174;53.486;9.568;2023-11-19T03:25:39;2.90;;;2.47;;
6282;SDS011;3174;53.486;9.568;2023-11-19T03:28:07;2.53;;;2.10;;
6282;SDS011;3174;53.486;9.568;2023-11-19T03:30:35;3.40;;;2.70;;
6282;SDS011;3174;53.486;9.568;2023-11-19T03:33:04;5.93;;;2.97;;
6282;SDS011;3174;53.486;9.568;2023-11-19T03:35:32;3.20;;;2.67;;
6282;SDS011;3174;53.486;9.568;2023-11-19T03:38:01;3.40;;;2.37;;
6282;SDS011;3174;53.486;9.568;2023-11-19T03:40:29;4.20;;;3.23;;
6282;SDS011;3174;53.486;9.568;2023-11-19T03:42:57;4.97;;;3.07;;
6282;SDS011;3174;53.486;9.568;2023-11-19T03:45:25;5.67;;;3.50;;
6282;SDS011;3174;53.486;9.568;2023-11-19T03:47:53;5.77;;;4.10;;
6282;SDS011;3174;53.486;9.568;2023-11-19T03:50:23;5.47;;;4.10;;
6282;SDS011;3174;53.486;9.568;2023-11-19T03:52:51;7.50;;;4.13;;
6282;SDS011;3174;53.486;9.568;2023-11-19T03:55:19;13.63;;;5.07;;
6282;SDS011;3174;53.486;9.568;2023-11-19T03:57:47;7.97;;;4.80;;
6282;SDS011;3174;53.486;9.568;2023-11-19T04:00:16;7.50;;;4.13;;
6282;SDS011;3174;53.486;9.568;2023-11-19T04:02:44;11.40;;;6.20;;
6282;SDS011;3174;53.486;9.568;2023-11-19T04:05:13;9.73;;;5.53;;
6282;SDS011;3174;53.486;9.568;2023-11-19T04:07:43;8.17;;;4.60;;
6282;SDS011;3174;53.486;9.568;2023-11-19T04:10:11;9.23;;;5.30;;
6282;SDS011;3174;53.486;9.568;2023-11-19T04:12:39;11.37;;;6.17;;
6282;SDS011;3174;53.486;9.568;2023-11-19T04:15:07;13.27;;;6.57;;
6282;SDS011;3174;53.486;9.568;2023-11-19T04:17:35;16.17;;;6.63;;
6282;SDS011;3174;53.486;9.568;2023-11-19T04:20:04;12.40;;;6.20;;
6282;SDS011;3174;53.486;9.568;2023-11-19T04:22:37;11.60;;;6.37;;
6282;SDS011;3174;53.486;9.568;2023-11-19T04:25:07;12.73;;;6.10;;
6282;SDS011;3174;53.486;9.568;2023-11-19T04:27:36;12.50;;;6.73;;
6282;SDS011;3174;53.486;9.568;2023-11-19T04:30:04;11.43;;;5.87;;
6282;SDS011;3174;53.486;9.568;2023-11-19T04:32:37;16.07;;;6.80;;
6282;SDS011;3174;53.486;9.568;2023-11-19T04:35:06;15.67;;;6.67;;
6282;SDS011;3174;53.486;9.568;2023-11-19T04:37:35;13.67;;;7.07;;
6282;SDS011;3174;53.486;9.568;2023-11-19T04:40:03;9.53;;;6.43;;
6282;SDS011;3174;53.486;9.568;2023-11-19T04:42:34;13.90;;;6.87;;
6282;SDS011;3174;53.486;9.568;2023-11-19T04:45:02;12.13;;;6.30;;
6282;SDS011;3174;53.486;9.568;2023-11-19T04:47:32;11.97;;;6.90;;
6282;SDS011;3174;53.486;9.568;2023-11-19T04:50:00;13.53;;;7.10;;
6282;SDS011;3174;53.486;9.568;2023-11-19T04:52:29;11.70;;;7.20;;
6282;SDS011;3174;53.486;9.568;2023-11-19T04:54:57;13.70;;;7.00;;
6282;SDS011;3174;53.486;9.568;2023-11-19T04:57:25;12.50;;;7.13;;
6282;SDS011;3174;53.486;9.568;2023-11-19T04:59:55;13.40;;;6.90;;
6282;SDS011;3174;53.486;9.568;2023-11-19T05:02:23;15.23;;;7.60;;
6282;SDS011;3174;53.486;9.568;2023-11-19T05:04:50;16.27;;;8.20;;
6282;SDS011;3174;53.486;9.568;2023-11-19T05:07:19;22.33;;;10.77;;
6282;SDS011;3174;53.486;9.568;2023-11-19T05:09:47;25.77;;;11.70;;
6282;SDS011;3174;53.486;9.568;2023-11-19T05:12:15;23.60;;;11.40;;
6282;SDS011;3174;53.486;9.568;2023-11-19T05:14:42;20.97;;;10.10;;
6282;SDS011;3174;53.486;9.568;2023-11-19T05:17:17;16.47;;;7.00;;
6282;SDS011;3174;53.486;9.568;2023-11-19T05:19:45;15.63;;;7.63;;
6282;SDS011;3174;53.486;9.568;2023-11-19T05:22:14;14.83;;;7.00;;
6282;SDS011;3174;53.486;9.568;2023-11-19T05:24:42;14.57;;;6.87;;
6282;SDS011;3174;53.486;9.568;2023-11-19T05:27:10;15.40;;;8.10;;
6282;SDS011;3174;53.486;9.568;2023-11-19T05:29:39;13.17;;;7.53;;
6282;SDS011;3174;53.486;9.568;2023-11-19T05:32:09;16.73;;;6.87;;
6282;SDS011;3174;53.486;9.568;2023-11-19T05:34:39;26.03;;;7.03;;
6282;SDS011;3174;53.486;9.568;2023-11-19T05:37:10;17.47;;;6.83;;
6282;SDS011;3174;53.486;9.568;2023-11-19T05:39:38;17.70;;;7.67;;
6282;SDS011;3174;53.486;9.568;2023-11-19T05:42:06;19.77;;;6.73;;
6282;SDS011;3174;53.486;9.568;2023-11-19T05:44:34;14.80;;;6.70;;
6282;SDS011;3174;53.486;9.568;2023-11-19T05:47:06;17.80;;;6.70;;
6282;SDS011;3174;53.486;9.568;2023-11-19T05:49:35;16.67;;;6.47;;
6282;SDS011;3174;53.486;9.568;2023-11-19T05:52:04;18.47;;;6.87;;
6282;SDS011;3174;53.486;9.568;2023-11-19T05:54:34;21.57;;;6.27;;
6282;SDS011;3174;53.486;9.568;2023-11-19T05:57:04;12.47;;;6.43;;
6282;SDS011;3174;53.486;9.568;2023-11-19T05:59:32;15.23;;;5.93;;
6282;SDS011;3174;53.486;9.568;2023-11-19T06:02:02;16.87;;;6.00;;
6282;SDS011;3174;53.486;9.568;2023-11-19T06:04:30;20.23;;;5.90;;
6282;SDS011;3174;53.486;9.568;2023-11-19T06:06:58;17.43;;;5.60;;
6282;SDS011;3174;53.486;9.568;2023-11-19T06:09:28;17.87;;;5.40;;
6282;SDS011;3174;53.486;9.568;2023-11-19T06:11:56;20.00;;;5.67;;
6282;SDS011;3174;53.486;9.568;2023-11-19T06:14:24;22.53;;;6.37;;
6282;SDS011;3174;53.486;9.568;2023-11-19T06:16:52;14.97;;;4.80;;
6282;SDS011;3174;53.486;9.568;2023-11-19T06:19:20;15.83;;;5.30;;
6282;SDS011;3174;53.486;9.568;2023-11-19T06:21:49;16.27;;;5.07;;
6282;SDS011;3174;53.486;9.568;2023-11-19T06:24:17;16.10;;;5.30;;
6282;SDS011;3174;53.486;9.568;2023-11-19T06:26:46;25.43;;;5.60;;
6282;SDS011;3174;53.486;9.568;2023-11-19T06:29:14;11.73;;;4.83;;
6282;SDS011;3174;53.486;9.568;2023-11-19T06:31:45;13.90;;;5.20;;
6282;SDS011;3174;53.486;9.568;2023-11-19T06:34:15;19.87;;;5.37;;
6282;SDS011;3174;53.486;9.568;2023-11-19T06:36:43;17.73;;;5.13;;
6282;SDS011;3174;53.486;9.568;2023-11-19T06:39:11;18.47;;;5.27;;
6282;SDS011;3174;53.486;9.568;2023-11-19T06:41:40;21.17;;;5.23;;
6282;SDS011;3174;53.486;9.568;2023-11-19T06:44:13;24.37;;;5.37;;
6282;SDS011;3174;53.486;9.568;2023-11-19T06:46:41;12.60;;;4.33;;
6282;SDS011;3174;53.486;9.568;2023-11-19T06:49:09;18.20;;;5.27;;
6282;SDS011;3174;53.486;9.568;2023-11-19T06:51:40;14.60;;;4.80;;
6282;SDS011;3174;53.486;9.568;2023-11-19T06:54:09;23.37;;;5.20;;
6282;SDS011;3174;53.486;9.568;2023-11-19T06:56:37;20.73;;;5.30;;
6282;SDS011;3174;53.486;9.568;2023-11-19T06:59:07;17.97;;;4.50;;
6282;SDS011;3174;53.486;9.568;2023-11-19T07:01:35;14.10;;;4.23;;
6282;SDS011;3174;53.486;9.568;2023-11-19T07:04:03;19.63;;;4.70;;
6282;SDS011;3174;53.486;9.568;2023-11-19T07:06:35;19.13;;;4.07;;
6282;SDS011;3174;53.486;9.568;2023-11-19T07:09:04;15.37;;;4.03;;
6282;SDS011;3174;53.486;9.568;2023-11-19T07:11:37;18.17;;;3.83;;
6282;SDS011;3174;53.486;9.568;2023-11-19T07:14:07;15.37;;;4.10;;
6282;SDS011;3174;53.486;9.568;2023-11-19T07:16:35;20.53;;;4.30;;
6282;SDS011;3174;53.486;9.568;2023-11-19T07:19:05;15.60;;;4.10;;
6282;SDS011;3174;53.486;9.568;2023-11-19T07:21:33;22.73;;;4.53;;
6282;SDS011;3174;53.486;9.568;2023-11-19T07:24:02;20.10;;;4.13;;
6282;SDS011;3174;53.486;9.568;2023-11-19T07:26:30;14.63;;;3.50;;
6282;SDS011;3174;53.486;9.568;2023-11-19T07:28:58;18.67;;;4.00;;
6282;SDS011;3174;53.486;9.568;2023-11-19T07:31:29;21.10;;;3.20;;
6282;SDS011;3174;53.486;9.568;2023-11-19T07:33:57;13.80;;;3.40;;
6282;SDS011;3174;53.486;9.568;2023-11-19T07:36:25;23.27;;;3.93;;
6282;SDS011;3174;53.486;9.568;2023-11-19T07:38:53;18.07;;;3.47;;
6282;SDS011;3174;53.486;9.568;2023-11-19T07:41:24;18.53;;;4.00;;
6282;SDS011;3174;53.486;9.568;2023-11-19T07:43:52;27.97;;;4.17;;
6282;SDS011;3174;53.486;9.568;2023-11-19T07:46:20;22.27;;;3.77;;
6282;SDS011;3174;53.486;9.568;2023-11-19T07:48:50;25.60;;;3.83;;
6282;SDS011;3174;53.486;9.568;2023-11-19T07:51:18;22.23;;;4.57;;
6282;SDS011;3174;53.486;9.568;2023-11-19T07:53:46;23.07;;;4.07;;
6282;SDS011;3174;53.486;9.568;2023-11-19T07:56:15;20.40;;;3.67;;
6282;SDS011;3174;53.486;9.568;2023-11-19T07:58:43;21.50;;;3.27;;
6282;SDS011;3174;53.486;9.568;2023-11-19T08:01:12;16.50;;;3.93;;
6282;SDS011;3174;53.486;9.568;2023-11-19T08:03:41;22.57;;;3.30;;
6282;SDS011;3174;53.486;9.568;2023-11-19T08:06:26;19.83;;;4.17;;
6282;SDS011;3174;53.486;9.568;2023-11-19T08:08:54;28.87;;;4.30;;
6282;SDS011;3174;53.486;9.568;2023-11-19T08:11:22;26.33;;;5.90;;
6282;SDS011;3174;53.486;9.568;2023-11-19T08:13:50;13.87;;;4.50;;
6282;SDS011;3174;53.486;9.568;2023-11-19T08:16:18;22.40;;;4.27;;
6282;SDS011;3174;53.486;9.568;2023-11-19T08:18:46;22.40;;;4.77;;
6282;SDS011;3174;53.486;9.568;2023-11-19T08:21:14;18.73;;;3.70;;
6282;SDS011;3174;53.486;9.568;2023-11-19T08:23:44;29.90;;;4.67;;
6282;SDS011;3174;53.486;9.568;2023-11-19T08:26:12;21.53;;;3.80;;
6282;SDS011;3174;53.486;9.568;2023-11-19T08:28:46;20.07;;;4.20;;
6282;SDS011;3174;53.486;9.568;2023-11-19T08:31:14;18.73;;;4.33;;
6282;SDS011;3174;53.486;9.568;2023-11-19T08:33:42;25.40;;;4.07;;
6282;SDS011;3174;53.486;9.568;2023-11-19T08:36:14;18.23;;;3.20;;
6282;SDS011;3174;53.486;9.568;2023-11-19T08:38:45;22.00;;;3.50;;
6282;SDS011;3174;53.486;9.568;2023-11-19T08:41:15;20.23;;;3.57;;
6282;SDS011;3174;53.486;9.568;2023-11-19T08:43:44;28.27;;;4.40;;
6282;SDS011;3174;53.486;9.568;2023-11-19T08:46:12;18.67;;;3.40;;
6282;SDS011;3174;53.486;9.568;2023-11-19T08:48:41;20.70;;;4.60;;
6282;SDS011;3174;53.486;9.568;2023-11-19T08:51:09;21.30;;;4.00;;
6282;SDS011;3174;53.486;9.568;2023-11-19T08:53:37;23.77;;;4.50;;
6282;SDS011;3174;53.486;9.568;2023-11-19T08:56:06;20.47;;;4.10;;
6282;SDS011;3174;53.486;9.568;2023-11-19T08:58:35;27.00;;;4.20;;
6282;SDS011;3174;53.486;9.568;2023-11-19T09:01:03;25.23;;;4.53;;
6282;SDS011;3174;53.486;9.568;2023-11-19T09:03:32;18.57;;;3.47;;
6282;SDS011;3174;53.486;9.568;2023-11-19T09:06:00;28.00;;;4.00;;
6282;SDS011;3174;53.486;9.568;2023-11-19T09:08:28;26.03;;;3.77;;
6282;SDS011;3174;53.486;9.568;2023-11-19T09:10:56;19.43;;;3.63;;
6282;SDS011;3174;53.486;9.568;2023-11-19T09:13:25;29.27;;;3.87;;
6282;SDS011;3174;53.486;9.568;2023-11-19T09:15:53;25.80;;;4.20;;
6282;SDS011;3174;53.486;9.568;2023-11-19T09:18:25;20.60;;;4.90;;
6282;SDS011;3174;53.486;9.568;2023-11-19T09:20:53;25.90;;;4.20;;
6282;SDS011;3174;53.486;9.568;2023-11-19T09:23:21;18.90;;;3.80;;
6282;SDS011;3174;53.486;9.568;2023-11-19T09:25:51;21.60;;;3.57;;
6282;SDS011;3174;53.486;9.568;2023-11-19T09:28:18;22.83;;;4.47;;
6282;SDS011;3174;53.486;9.568;2023-11-19T09:30:48;20.70;;;4.30;;
6282;SDS011;3174;53.486;9.568;2023-11-19T09:33:16;16.50;;;3.67;;
6282;SDS011;3174;53.486;9.568;2023-11-19T09:35:44;25.73;;;4.07;;
6282;SDS011;3174;53.486;9.568;2023-11-19T09:38:12;18.67;;;3.77;;
6282;SDS011;3174;53.486;9.568;2023-11-19T09:40:40;24.37;;;3.67;;
6282;SDS011;3174;53.486;9.568;2023-11-19T09:43:08;30.13;;;3.63;;
6282;SDS011;3174;53.486;9.568;2023-11-19T09:45:39;22.63;;;4.10;;
6282;SDS011;3174;53.486;9.568;2023-11-19T09:48:17;19.53;;;4.07;;
6282;SDS011;3174;53.486;9.568;2023-11-19T09:50:46;18.87;;;3.40;;
6282;SDS011;3174;53.486;9.568;2023-11-19T09:53:15;22.97;;;3.83;;
6282;SDS011;3174;53.486;9.568;2023-11-19T09:55:43;20.50;;;3.50;;
6282;SDS011;3174;53.486;9.568;2023-11-19T09:58:12;22.83;;;3.97;;
6282;SDS011;3174;53.486;9.568;2023-11-19T10:00:42;37.23;;;5.20;;
6282;SDS011;3174;53.486;9.568;2023-11-19T10:03:19;18.97;;;3.20;;
6282;SDS011;3174;53.486;9.568;2023-11-19T10:05:49;27.30;;;5.00;;
6282;SDS011;3174;53.486;9.568;2023-11-19T10:08:17;19.93;;;3.33;;
6282;SDS011;3174;53.486;9.568;2023-11-19T10:10:45;32.17;;;4.60;;
6282;SDS011;3174;53.486;9.568;2023-11-19T10:13:13;25.23;;;4.20;;
6282;SDS011;3174;53.486;9.568;2023-11-19T10:15:41;18.10;;;3.10;;
6282;SDS011;3174;53.486;9.568;2023-11-19T10:18:11;24.27;;;3.50;;
6282;SDS011;3174;53.486;9.568;2023-11-19T10:20:43;19.47;;;3.93;;
6282;SDS011;3174;53.486;9.568;2023-11-19T10:23:11;29.30;;;4.10;;
6282;SDS011;3174;53.486;9.568;2023-11-19T10:25:39;15.20;;;3.20;;
6282;SDS011;3174;53.486;9.568;2023-11-19T10:28:07;23.80;;;3.87;;
6282;SDS011;3174;53.486;9.568;2023-11-19T10:30:35;16.53;;;3.50;;
6282;SDS011;3174;53.486;9.568;2023-11-19T10:33:04;21.47;;;3.97;;
6282;SDS011;3174;53.486;9.568;2023-11-19T10:35:33;20.00;;;3.30;;
6282;SDS011;3174;53.486;9.568;2023-11-19T10:38:03;28.10;;;3.60;;
6282;SDS011;3174;53.486;9.568;2023-11-19T10:40:41;25.37;;;3.73;;
6282;SDS011;3174;53.486;9.568;2023-11-19T10:43:09;20.13;;;3.27;;
6282;SDS011;3174;53.486;9.568;2023-11-19T10:45:37;17.20;;;3.20;;
6282;SDS011;3174;53.486;9.568;2023-11-19T10:48:06;20.03;;;3.50;;
6282;SDS011;3174;53.486;9.568;2023-11-19T10:50:34;15.80;;;3.43;;
6282;SDS011;3174;53.486;9.568;2023-11-19T10:53:05;21.30;;;4.13;;
6282;SDS011;3174;53.486;9.568;2023-11-19T10:55:34;20.67;;;4.47;;
6282;SDS011;3174;53.486;9.568;2023-11-19T10:58:05;15.33;;;3.13;;
6282;SDS011;3174;53.486;9.568;2023-11-19T11:00:34;17.30;;;3.10;;
6282;SDS011;3174;53.486;9.568;2023-11-19T11:03:10;29.13;;;3.97;;
6282;SDS011;3174;53.486;9.568;2023-11-19T11:05:39;20.10;;;3.30;;
6282;SDS011;3174;53.486;9.568;2023-11-19T11:08:09;19.80;;;3.47;;
6282;SDS011;3174;53.486;9.568;2023-11-19T11:10:39;18.07;;;3.13;;
6282;SDS011;3174;53.486;9.568;2023-11-19T11:13:13;14.73;;;3.40;;
6282;SDS011;3174;53.486;9.568;2023-11-19T11:15:41;21.03;;;4.10;;
6282;SDS011;3174;53.486;9.568;2023-11-19T11:18:13;24.10;;;4.63;;
6282;SDS011;3174;53.486;9.568;2023-11-19T11:20:44;14.53;;;3.37;;
6282;SDS011;3174;53.486;9.568;2023-11-19T11:23:22;23.63;;;3.47;;
6282;SDS011;3174;53.486;9.568;2023-11-19T11:26:23;18.33;;;4.03;;
6282;SDS011;3174;53.486;9.568;2023-11-19T11:29:03;25.03;;;3.87;;
6282;SDS011;3174;53.486;9.568;2023-11-19T11:31:35;30.20;;;3.40;;
6282;SDS011;3174;53.486;9.568;2023-11-19T11:34:15;28.03;;;4.37;;
6282;SDS011;3174;53.486;9.568;2023-11-19T11:37:10;23.50;;;3.93;;
6282;SDS011;3174;53.486;9.568;2023-11-19T11:39:46;12.27;;;3.53;;
6282;SDS011;3174;53.486;9.568;2023-11-19T11:45:08;25.10;;;3.60;;
6282;SDS011;3174;53.486;9.568;2023-11-19T11:50:48;18.23;;;3.87;;
6282;SDS011;3174;53.486;9.568;2023-11-19T11:53:17;21.50;;;3.50;;
6282;SDS011;3174;53.486;9.568;2023-11-19T11:55:54;20.00;;;4.17;;
6282;SDS011;3174;53.486;9.568;2023-11-19T11:58:26;21.47;;;3.50;;
6282;SDS011;3174;53.486;9.568;2023-11-19T12:00:57;17.47;;;3.67;;
6282;SDS011;3174;53.486;9.568;2023-11-19T12:03:27;23.43;;;5.40;;
6282;SDS011;3174;53.486;9.568;2023-11-19T12:05:56;17.73;;;3.80;;
6282;SDS011;3174;53.486;9.568;2023-11-19T12:08:26;17.30;;;3.93;;
6282;SDS011;3174;53.486;9.568;2023-11-19T12:10:56;15.87;;;3.83;;
6282;SDS011;3174;53.486;9.568;2023-11-19T12:13:29;15.73;;;3.50;;
6282;SDS011;3174;53.486;9.568;2023-11-19T12:16:13;16.30;;;3.57;;
6282;SDS011;3174;53.486;9.568;2023-11-19T12:18:42;19.80;;;3.67;;
6282;SDS011;3174;53.486;9.568;2023-11-19T12:21:10;18.83;;;4.17;;
6282;SDS011;3174;53.486;9.568;2023-11-19T12:23:45;12.53;;;3.30;;
6282;SDS011;3174;53.486;9.568;2023-11-19T12:26:22;13.90;;;3.37;;
6282;SDS011;3174;53.486;9.568;2023-11-19T12:28:59;12.67;;;3.53;;
6282;SDS011;3174;53.486;9.568;2023-11-19T12:31:33;22.23;;;4.30;;
6282;SDS011;3174;53.486;9.568;2023-11-19T12:34:06;15.07;;;3.50;;
6282;SDS011;3174;53.486;9.568;2023-11-19T12:36:40;19.47;;;4.63;;
6282;SDS011;3174;53.486;9.568;2023-11-19T12:39:11;18.23;;;4.03;;
6282;SDS011;3174;53.486;9.568;2023-11-19T12:41:51;17.20;;;3.30;;
6282;SDS011;3174;53.486;9.568;2023-11-19T12:44:21;15.47;;;3.37;;
6282;SDS011;3174;53.486;9.568;2023-11-19T12:49:33;15.33;;;3.80;;
6282;SDS011;3174;53.486;9.568;2023-11-19T12:52:01;11.17;;;3.53;;
6282;SDS011;3174;53.486;9.568;2023-11-19T12:54:33;12.63;;;3.57;;
6282;SDS011;3174;53.486;9.568;2023-11-19T12:57:04;14.03;;;2.73;;
6282;SDS011;3174;53.486;9.568;2023-11-19T12:59:32;12.70;;;2.67;;
6282;SDS011;3174;53.486;9.568;2023-11-19T13:02:00;19.73;;;5.30;;
6282;SDS011;3174;53.486;9.568;2023-11-19T13:04:32;17.43;;;3.03;;
6282;SDS011;3174;53.486;9.568;2023-11-19T13:07:00;13.13;;;3.17;;
6282;SDS011;3174;53.486;9.568;2023-11-19T13:09:31;12.43;;;3.10;;
6282;SDS011;3174;53.486;9.568;2023-11-19T13:12:00;17.87;;;3.40;;
6282;SDS011;3174;53.486;9.568;2023-11-19T13:14:41;17.53;;;3.30;;
6282;SDS011;3174;53.486;9.568;2023-11-19T13:17:15;8.40;;;2.40;;
6282;SDS011;3174;53.486;9.568;2023-11-19T13:19:43;11.53;;;2.63;;
6282;SDS011;3174;53.486;9.568;2023-11-19T13:22:14;12.30;;;3.20;;
6282;SDS011;3174;53.486;9.568;2023-11-19T13:24:43;9.73;;;2.60;;
6282;SDS011;3174;53.486;9.568;2023-11-19T13:27:11;10.00;;;2.83;;
6282;SDS011;3174;53.486;9.568;2023-11-19T13:29:40;17.97;;;3.20;;
6282;SDS011;3174;53.486;9.568;2023-11-19T13:32:08;22.47;;;3.07;;
6282;SDS011;3174;53.486;9.568;2023-11-19T13:34:36;15.33;;;3.33;;
6282;SDS011;3174;53.486;9.568;2023-11-19T13:37:04;18.30;;;3.40;;
6282;SDS011;3174;53.486;9.568;2023-11-19T13:39:32;17.70;;;3.60;;
6282;SDS011;3174;53.486;9.568;2023-11-19T13:42:00;17.03;;;3.10;;
6282;SDS011;3174;53.486;9.568;2023-11-19T13:44:31;14.53;;;3.10;;
6282;SDS011;3174;53.486;9.568;2023-11-19T13:47:00;13.77;;;3.03;;
6282;SDS011;3174;53.486;9.568;2023-11-19T13:49:29;13.47;;;2.63;;
6282;SDS011;3174;53.486;9.568;2023-11-19T13:51:57;17.70;;;3.07;;
6282;SDS011;3174;53.486;9.568;2023-11-19T13:54:25;12.97;;;3.10;;
6282;SDS011;3174;53.486;9.568;2023-11-19T13:56:54;11.90;;;2.70;;
6282;SDS011;3174;53.486;9.568;2023-11-19T13:59:24;14.13;;;2.70;;
6282;SDS011;3174;53.486;9.568;2023-11-19T14:01:52;12.73;;;2.50;;
6282;SDS011;3174;53.486;9.568;2023-11-19T14:04:21;11.70;;;2.90;;
6282;SDS011;3174;53.486;9.568;2023-11-19T14:06:50;11.00;;;2.57;;
6282;SDS011;3174;53.486;9.568;2023-11-19T14:09:18;17.17;;;2.80;;
6282;SDS011;3174;53.486;9.568;2023-11-19T14:11:46;7.43;;;2.17;;
6282;SDS011;3174;53.486;9.568;2023-11-19T14:14:17;13.33;;;2.77;;
6282;SDS011;3174;53.486;9.568;2023-11-19T14:16:45;12.53;;;2.93;;
6282;SDS011;3174;53.486;9.568;2023-11-19T14:19:13;9.43;;;2.03;;
6282;SDS011;3174;53.486;9.568;2023-11-19T14:21:42;10.17;;;2.30;;
6282;SDS011;3174;53.486;9.568;2023-11-19T14:24:11;17.00;;;2.50;;
6282;SDS011;3174;53.486;9.568;2023-11-19T14:26:39;11.87;;;2.63;;
6282;SDS011;3174;53.486;9.568;2023-11-19T14:29:07;12.17;;;2.90;;
6282;SDS011;3174;53.486;9.568;2023-11-19T14:31:35;13.90;;;2.30;;
6282;SDS011;3174;53.486;9.568;2023-11-19T14:34:03;11.10;;;2.40;;
6282;SDS011;3174;53.486;9.568;2023-11-19T14:36:31;14.03;;;2.73;;
6282;SDS011;3174;53.486;9.568;2023-11-19T14:39:01;11.60;;;2.30;;
6282;SDS011;3174;53.486;9.568;2023-11-19T14:41:30;16.73;;;2.67;;
6282;SDS011;3174;53.486;9.568;2023-11-19T14:43:58;8.83;;;2.27;;
6282;SDS011;3174;53.486;9.568;2023-11-19T14:46:27;10.80;;;2.80;;
6282;SDS011;3174;53.486;9.568;2023-11-19T14:48:55;10.27;;;2.37;;
6282;SDS011;3174;53.486;9.568;2023-11-19T14:51:23;13.73;;;2.50;;
6282;SDS011;3174;53.486;9.568;2023-11-19T14:53:51;7.10;;;2.70;;
6282;SDS011;3174;53.486;9.568;2023-11-19T14:56:21;11.23;;;2.90;;
6282;SDS011;3174;53.486;9.568;2023-11-19T14:58:49;8.70;;;2.73;;
6282;SDS011;3174;53.486;9.568;2023-11-19T15:01:17;9.30;;;2.30;;
6282;SDS011;3174;53.486;9.568;2023-11-19T15:03:45;14.93;;;4.00;;
6282;SDS011;3174;53.486;9.568;2023-11-19T15:06:16;12.87;;;4.13;;
6282;SDS011;3174;53.486;9.568;2023-11-19T15:08:44;12.90;;;3.10;;
6282;SDS011;3174;53.486;9.568;2023-11-19T15:11:12;12.33;;;4.10;;
6282;SDS011;3174;53.486;9.568;2023-11-19T15:13:42;8.97;;;2.63;;
6282;SDS011;3174;53.486;9.568;2023-11-19T15:16:10;10.93;;;2.93;;
6282;SDS011;3174;53.486;9.568;2023-11-19T15:18:38;14.80;;;3.10;;
6282;SDS011;3174;53.486;9.568;2023-11-19T15:21:06;11.33;;;2.63;;
6282;SDS011;3174;53.486;9.568;2023-11-19T15:23:35;11.83;;;3.07;;
6282;SDS011;3174;53.486;9.568;2023-11-19T15:26:03;8.17;;;2.40;;
6282;SDS011;3174;53.486;9.568;2023-11-19T15:28:33;11.67;;;2.40;;
6282;SDS011;3174;53.486;9.568;2023-11-19T15:31:02;13.73;;;2.67;;